createdAt,value
2018-12-22T00:01:03.655Z,1.60
2018-12-22T00:06:07.092Z,2.17
2018-12-22T00:11:13.443Z,1.73
2018-12-22T00:16:16.588Z,1.70
2018-12-22T00:21:19.716Z,1.57
2018-12-22T00:26:22.916Z,1.60
2018-12-22T00:31:26.064Z,2.03
2018-12-22T00:36:29.154Z,1.93
2018-12-22T00:41:32.315Z,1.80
2018-12-22T00:46:36.134Z,1.67
2018-12-22T00:51:39.278Z,1.60
2018-12-22T00:56:42.429Z,1.33
2018-12-22T01:01:45.563Z,1.67
2018-12-22T01:06:48.697Z,1.10
2018-12-22T01:11:51.856Z,1.43
2018-12-22T01:16:54.993Z,1.20
2018-12-22T01:21:58.228Z,1.10
2018-12-22T01:27:01.514Z,1.50
2018-12-22T01:32:04.649Z,1.47
2018-12-22T01:37:08.273Z,1.60
2018-12-22T01:42:11.410Z,1.77
2018-12-22T01:47:14.600Z,1.83
2018-12-22T01:52:17.794Z,1.60
2018-12-22T01:57:21.966Z,1.93
2018-12-22T02:02:26.118Z,1.80
2018-12-22T02:07:29.439Z,2.20
2018-12-22T02:12:32.562Z,2.03
2018-12-22T02:17:35.688Z,2.20
2018-12-22T02:22:38.814Z,2.37
2018-12-22T02:27:41.894Z,2.40
2018-12-22T02:32:45.050Z,2.20
2018-12-22T02:37:48.306Z,3.03
2018-12-22T02:42:51.540Z,2.67
2018-12-22T02:47:54.886Z,2.40
2018-12-22T02:52:58.151Z,2.97
2018-12-22T02:58:01.390Z,2.63
2018-12-22T03:03:04.551Z,2.53
2018-12-22T03:08:07.833Z,3.07
2018-12-22T03:13:11.026Z,2.33
2018-12-22T03:18:14.160Z,3.03
2018-12-22T03:23:17.284Z,2.83
2018-12-22T03:28:20.393Z,2.87
2018-12-22T03:33:23.539Z,2.37
2018-12-22T03:38:26.673Z,3.10
2018-12-22T03:43:29.804Z,2.60
2018-12-22T03:48:32.916Z,2.73
2018-12-22T03:53:35.987Z,2.70
2018-12-22T03:58:39.113Z,2.73
2018-12-22T04:03:42.259Z,3.50
2018-12-22T04:08:45.370Z,3.63
2018-12-22T04:13:48.565Z,2.87
2018-12-22T04:18:51.684Z,3.63
2018-12-22T04:23:54.838Z,3.07
2018-12-22T04:28:57.977Z,4.00
2018-12-22T04:34:01.098Z,3.27
2018-12-22T04:39:06.715Z,4.20
2018-12-22T04:44:09.834Z,4.57
2018-12-22T04:49:12.993Z,3.23
2018-12-22T04:54:16.190Z,3.83
2018-12-22T04:59:19.292Z,2.73
2018-12-22T05:04:22.445Z,2.37
2018-12-22T05:09:25.602Z,2.50
2018-12-22T05:14:28.698Z,2.17
2018-12-22T05:19:31.859Z,2.40
2018-12-22T05:24:35.105Z,2.40
2018-12-22T05:29:38.180Z,2.37
2018-12-22T05:34:41.311Z,2.50
2018-12-22T05:39:44.423Z,2.00
2018-12-22T05:44:47.562Z,1.83
2018-12-22T05:49:50.620Z,1.93
2018-12-22T05:54:53.774Z,1.90
2018-12-22T06:00:00.673Z,2.40
2018-12-22T06:05:02.222Z,1.93
2018-12-22T06:10:05.477Z,2.77
2018-12-22T06:15:08.622Z,2.70
2018-12-22T06:20:11.784Z,2.83
2018-12-22T06:25:14.941Z,2.60
2018-12-22T06:30:17.998Z,2.77
2018-12-22T06:35:21.144Z,2.50
2018-12-22T06:40:24.243Z,2.80
2018-12-22T06:45:27.383Z,3.47
2018-12-22T06:50:30.540Z,2.70
2018-12-22T06:55:33.677Z,3.03
2018-12-22T07:00:36.842Z,3.03
2018-12-22T07:05:39.956Z,3.60
2018-12-22T07:10:43.183Z,2.97
2018-12-22T07:15:46.316Z,3.00
2018-12-22T07:20:49.696Z,3.17
2018-12-22T07:25:52.821Z,3.30
2018-12-22T07:30:55.925Z,3.40
2018-12-22T07:35:59.053Z,3.97
2018-12-22T07:41:02.297Z,3.67
2018-12-22T07:46:05.418Z,3.30
2018-12-22T07:51:08.604Z,3.30
2018-12-22T07:56:11.764Z,4.63
2018-12-22T08:01:14.911Z,3.30
2018-12-22T08:06:18.128Z,3.30
2018-12-22T08:11:21.300Z,3.20
2018-12-22T08:16:24.419Z,3.20
2018-12-22T08:21:27.588Z,3.33
2018-12-22T08:26:30.724Z,2.90
2018-12-22T08:31:33.811Z,2.63
2018-12-22T08:36:37.039Z,2.87
2018-12-22T08:41:40.181Z,2.87
2018-12-22T08:46:43.291Z,3.77
2018-12-22T08:51:46.434Z,3.33
2018-12-22T08:56:49.548Z,4.13
2018-12-22T09:01:52.656Z,2.90
2018-12-22T09:06:55.784Z,3.40
2018-12-22T09:11:58.975Z,3.50
2018-12-22T09:17:02.135Z,2.70
2018-12-22T09:22:05.336Z,3.57
2018-12-22T09:27:08.540Z,4.47
2018-12-22T09:32:11.751Z,3.87
2018-12-22T09:37:14.914Z,3.53
2018-12-22T09:42:18.069Z,3.47
2018-12-22T09:47:21.369Z,4.07
2018-12-22T09:52:24.563Z,4.27
2018-12-22T09:57:27.752Z,3.70
2018-12-22T10:02:30.935Z,3.90
2018-12-22T10:07:34.060Z,3.73
2018-12-22T10:12:37.251Z,4.30
2018-12-22T10:17:40.558Z,4.37
2018-12-22T10:22:43.768Z,3.97
2018-12-22T10:27:46.972Z,4.87
2018-12-22T10:32:50.080Z,4.67
2018-12-22T10:37:53.231Z,2.70
2018-12-22T10:42:56.358Z,2.67
2018-12-22T10:47:59.472Z,2.07
2018-12-22T10:53:02.596Z,2.33
2018-12-22T10:58:06.075Z,2.33
2018-12-22T11:03:09.260Z,1.93
2018-12-22T11:08:12.431Z,2.00
2018-12-22T11:13:15.561Z,2.03
2018-12-22T11:18:18.752Z,2.47
2018-12-22T11:23:21.875Z,1.37
2018-12-22T11:28:25.001Z,1.30
2018-12-22T11:33:28.141Z,1.40
2018-12-22T11:38:31.380Z,1.27
2018-12-22T11:43:34.565Z,1.40
2018-12-22T11:48:44.400Z,0.80
2018-12-22T11:53:47.589Z,1.40
2018-12-22T11:58:50.756Z,1.30
2018-12-22T12:03:53.863Z,1.20
2018-12-22T12:08:56.980Z,0.90
2018-12-22T12:14:00.102Z,1.00
2018-12-22T12:19:13.139Z,0.97
2018-12-22T12:24:16.596Z,1.00
2018-12-22T12:29:19.747Z,1.10
2018-12-22T12:34:22.926Z,1.20
2018-12-22T12:39:26.062Z,1.47
2018-12-22T12:44:29.284Z,1.70
2018-12-22T12:49:32.457Z,1.90
2018-12-22T12:54:35.632Z,1.60
2018-12-22T12:59:38.754Z,1.37
2018-12-22T13:04:41.968Z,1.50
2018-12-22T13:09:45.626Z,1.60
2018-12-22T13:14:50.421Z,1.60
2018-12-22T13:19:53.532Z,1.50
2018-12-22T13:24:56.643Z,1.20
2018-12-22T13:29:59.834Z,1.30
2018-12-22T13:35:03.015Z,1.30
2018-12-22T13:40:07.960Z,1.00
2018-12-22T13:45:12.932Z,0.90
2018-12-22T13:50:16.594Z,1.00
2018-12-22T13:55:20.140Z,0.77
2018-12-22T14:00:23.261Z,0.80
2018-12-22T14:10:35.916Z,0.90
2018-12-22T14:15:49.755Z,0.80
2018-12-22T14:20:52.949Z,0.87
2018-12-22T14:25:56.084Z,0.80
2018-12-22T14:30:59.218Z,1.30
2018-12-22T14:36:06.179Z,1.00
2018-12-22T14:41:09.339Z,0.80
2018-12-22T14:46:12.476Z,1.23
2018-12-22T14:51:15.613Z,1.00
2018-12-22T14:56:20.061Z,1.10
2018-12-22T15:01:23.194Z,1.07
2018-12-22T15:06:26.346Z,0.90
2018-12-22T15:11:29.439Z,0.93
2018-12-22T15:16:32.603Z,0.90
2018-12-22T15:21:35.769Z,1.07
2018-12-22T15:26:38.893Z,0.97
2018-12-22T15:31:44.029Z,1.03
2018-12-22T15:36:47.255Z,1.00
2018-12-22T15:41:50.406Z,1.00
2018-12-22T15:46:53.508Z,1.10
2018-12-22T15:51:59.515Z,1.40
2018-12-22T15:57:03.640Z,1.00
2018-12-22T16:02:06.777Z,1.50
2018-12-22T16:07:10.087Z,0.90
2018-12-22T16:12:13.401Z,2.17
2018-12-22T16:17:16.702Z,3.30
2018-12-22T16:22:19.882Z,0.93
2018-12-22T16:27:23.028Z,1.00
2018-12-22T16:32:26.303Z,1.10
2018-12-22T16:37:29.512Z,1.17
2018-12-22T16:42:32.776Z,1.23
2018-12-22T16:47:35.894Z,1.40
2018-12-22T16:52:39.081Z,1.30
2018-12-22T16:57:46.515Z,1.47
2018-12-22T17:02:57.206Z,1.60
2018-12-22T17:08:00.348Z,2.13
2018-12-22T17:13:03.546Z,1.70
2018-12-22T17:18:07.033Z,2.50
2018-12-22T17:23:26.395Z,2.80
2018-12-22T17:28:30.659Z,2.77
2018-12-22T17:33:33.855Z,3.33
2018-12-22T17:38:37.032Z,3.23
2018-12-22T17:43:42.194Z,3.17
2018-12-22T17:48:45.298Z,2.53
2018-12-22T17:53:48.486Z,1.73
2018-12-22T17:58:51.624Z,2.50
2018-12-22T18:03:54.787Z,2.00
2018-12-22T18:08:57.951Z,2.17
2018-12-22T18:14:01.079Z,2.33
2018-12-22T18:19:04.222Z,2.90
2018-12-22T18:24:07.407Z,2.80
2018-12-22T18:29:10.544Z,2.90
2018-12-22T18:34:13.666Z,3.50
2018-12-22T18:39:16.814Z,3.37
2018-12-22T18:44:20.708Z,4.73
2018-12-22T18:49:24.799Z,4.40
2018-12-22T18:54:27.950Z,4.67
2018-12-22T18:59:31.160Z,5.20
2018-12-22T19:04:34.329Z,5.50
2018-12-22T19:09:39.176Z,5.50
2018-12-22T19:14:53.927Z,9.03
2018-12-22T19:19:57.101Z,7.50
2018-12-22T19:25:00.195Z,6.17
2018-12-22T19:30:03.350Z,4.50
2018-12-22T19:35:06.474Z,4.80
2018-12-22T19:40:09.643Z,4.80
2018-12-22T19:45:12.801Z,3.57
2018-12-22T19:50:16.101Z,3.80
2018-12-22T19:55:19.257Z,2.73
2018-12-22T20:00:22.556Z,3.10
2018-12-22T20:05:25.739Z,3.10
2018-12-22T20:10:28.868Z,3.03
2018-12-22T20:15:31.923Z,3.80
2018-12-22T20:20:35.052Z,3.93
2018-12-22T20:25:38.191Z,3.83
2018-12-22T20:30:41.335Z,3.90
2018-12-22T20:35:51.128Z,4.17
2018-12-22T20:40:54.258Z,4.03
2018-12-22T20:45:57.408Z,3.90
2018-12-22T20:51:00.729Z,3.27
2018-12-22T20:56:04.100Z,3.50
2018-12-22T21:01:07.243Z,3.63
2018-12-22T21:06:17.096Z,2.80
2018-12-22T21:11:20.253Z,2.90
2018-12-22T21:16:23.370Z,2.67
2018-12-22T21:21:26.535Z,2.97
2018-12-22T21:26:29.617Z,2.40
2018-12-22T21:31:32.842Z,2.27
2018-12-22T21:36:36.047Z,2.30
2018-12-22T21:41:39.222Z,2.50
2018-12-22T21:46:42.439Z,2.70
2018-12-22T21:51:49.159Z,2.30
2018-12-22T21:56:52.447Z,2.53
2018-12-22T22:01:55.597Z,2.70
2018-12-22T22:06:58.665Z,3.43
2018-12-22T22:12:01.810Z,3.40
2018-12-22T22:17:04.856Z,2.80
2018-12-22T22:22:07.931Z,2.87
2018-12-22T22:27:12.201Z,2.70
2018-12-22T22:32:15.390Z,2.93
2018-12-22T22:37:18.607Z,2.70
2018-12-22T22:42:21.747Z,2.60
2018-12-22T22:47:25.919Z,2.67
2018-12-22T22:52:29.083Z,2.30
2018-12-22T22:57:32.197Z,2.60
2018-12-22T23:02:35.292Z,2.37
2018-12-22T23:07:39.472Z,2.20
2018-12-22T23:12:44.700Z,2.67
2018-12-22T23:17:47.791Z,2.20
2018-12-22T23:22:51.716Z,2.00
2018-12-22T23:27:54.820Z,1.90
2018-12-22T23:32:57.981Z,2.20
2018-12-22T23:38:01.071Z,1.93
2018-12-22T23:43:04.267Z,1.93
2018-12-22T23:48:07.355Z,1.97
2018-12-22T23:53:10.450Z,2.13
2018-12-22T23:58:13.627Z,1.97
